Terminal Aerodrome Forecast
Issued by NWS Wakefield, VA

Home | Current Version | Previous Version | Text Only | Print | Product List | Glossary On
Versions: 1 2 3 4 5 6 7 8 9 10 11 12 13
000
FTUS41 KAKQ 301120
TAFRIC
TAF
KRIC 301120Z 3012/3112 21011KT P6SM VCSH BKN060
     FM301400 23014G21KT P6SM BKN050
     FM301800 27014G21KT P6SM SCT060
     FM310000 28007KT P6SM SCT250=

USA.gov is the U.S. government's official web portal to all federal, state and local government web resources and services.